Time,TemperatureF,DewpointF,PressureIn,WindDirection,WindDirectionDegrees,WindSpeedMPH,WindSpeedGustMPH,Humidity,HourlyPrecipIn,Conditions,Clouds,dailyrainin,SoftwareType,DateUTC
2013-07-24 00:00:00,71.4,71.4,29.53,North,0,0.0,0.0,100,0.00,,,0.00,meteo_script,2013-07-24 04:00:00,
2013-07-24 00:05:00,71.4,71.4,29.52,North,0,0.0,0.0,100,0.00,,,0.00,meteo_script,2013-07-24 04:05:00,
2013-07-24 00:10:00,71.3,71.3,29.53,North,0,0.0,0.0,100,0.00,,,0.00,meteo_script,2013-07-24 04:10:00,
2013-07-24 00:15:00,71.3,71.3,29.53,North,0,0.0,0.0,100,0.00,,,0.00,meteo_script,2013-07-24 04:15:00,
2013-07-24 00:20:00,71.3,71.3,29.52,North,0,0.1,3.0,100,0.00,,,0.00,meteo_script,2013-07-24 04:20:00,
2013-07-24 00:25:00,71.2,71.2,29.52,West,267,0.1,1.0,100,0.00,,,0.00,meteo_script,2013-07-24 04:25:00,
2013-07-24 00:35:00,71.2,71.2,29.52,North,0,0.0,0.0,100,0.00,,,0.00,meteo_script,2013-07-24 04:35:00,
2013-07-24 00:40:00,71.2,71.2,29.52,North,0,0.0,0.0,100,0.00,,,0.00,meteo_script,2013-07-24 04:40:00,
2013-07-24 00:45:00,71.2,71.2,29.52,North,0,0.0,0.0,100,0.00,,,0.00,meteo_script,2013-07-24 04:45:00,
2013-07-24 00:55:00,71.1,71.1,29.51,North,0,0.0,0.0,100,0.00,,,0.00,meteo_script,2013-07-24 04:55:00,
2013-07-24 01:00:00,71.1,71.1,29.51,North,0,0.0,0.0,100,0.00,,,0.00,meteo_script,2013-07-24 05:00:00,
2013-07-24 01:05:00,71.0,71.0,29.51,North,0,0.0,0.0,100,0.00,,,0.00,meteo_script,2013-07-24 05:05:00,
2013-07-24 01:15:00,70.9,70.9,29.51,North,0,0.0,0.0,100,0.00,,,0.00,meteo_script,2013-07-24 05:15:00,
2013-07-24 01:20:00,70.9,70.9,29.51,North,0,0.0,0.0,100,0.00,,,0.00,meteo_script,2013-07-24 05:20:00,
2013-07-24 01:30:00,71.0,71.0,29.51,North,0,0.0,0.0,100,0.00,,,0.00,meteo_script,2013-07-24 05:30:00,
2013-07-24 01:35:00,71.0,71.0,29.51,North,0,0.0,0.0,100,0.00,,,0.00,meteo_script,2013-07-24 05:35:00,
2013-07-24 01:40:00,70.9,70.9,29.51,North,0,0.0,0.0,100,0.00,,,0.00,meteo_script,2013-07-24 05:40:00,
2013-07-24 01:50:00,71.0,71.0,29.51,North,0,0.0,0.0,100,0.00,,,0.00,meteo_script,2013-07-24 05:50:00,
2013-07-24 01:55:00,71.0,71.0,29.51,North,0,0.0,0.0,100,0.00,,,0.00,meteo_script,2013-07-24 05:55:00,
2013-07-24 02:00:00,71.0,71.0,29.51,North,0,0.0,0.0,100,0.00,,,0.00,meteo_script,2013-07-24 06:00:00,
2013-07-24 02:10:00,70.9,70.9,29.51,North,0,0.0,0.0,100,0.00,,,0.00,meteo_script,2013-07-24 06:10:00,
2013-07-24 02:15:00,71.0,71.0,29.51,North,0,0.0,0.0,100,0.00,,,0.00,meteo_script,2013-07-24 06:15:00,
2013-07-24 02:25:00,71.0,71.0,29.50,North,0,0.0,0.0,100,0.00,,,0.00,meteo_script,2013-07-24 06:25:00,
2013-07-24 02:30:00,71.0,71.0,29.50,North,0,0.0,0.0,100,0.00,,,0.00,meteo_script,2013-07-24 06:30:00,
2013-07-24 02:35:00,70.9,70.9,29.51,North,0,0.0,0.0,100,0.00,,,0.00,meteo_script,2013-07-24 06:35:00,
2013-07-24 02:45:00,70.9,70.8,29.50,North,0,0.0,0.0,100,0.00,,,0.00,meteo_script,2013-07-24 06:45:00,
2013-07-24 02:50:00,70.8,70.8,29.50,North,0,0.0,0.0,100,0.00,,,0.00,meteo_script,2013-07-24 06:50:00,
2013-07-24 02:55:00,70.7,70.7,29.50,North,0,0.0,0.0,100,0.00,,,0.00,meteo_script,2013-07-24 06:55:00,
2013-07-24 03:05:00,70.6,70.6,29.50,North,0,0.0,0.0,100,0.00,,,0.00,meteo_script,2013-07-24 07:05:00,
2013-07-24 03:10:00,70.6,70.6,29.50,North,0,0.0,0.0,100,0.00,,,0.00,meteo_script,2013-07-24 07:10:00,
2013-07-24 03:15:00,70.6,70.6,29.50,North,0,0.0,0.0,100,0.00,,,0.00,meteo_script,2013-07-24 07:15:00,
2013-07-24 03:25:00,70.6,70.6,29.50,North,0,0.0,0.0,100,0.00,,,0.00,meteo_script,2013-07-24 07:25:00,
2013-07-24 03:30:00,70.7,70.7,29.50,North,0,0.0,0.0,100,0.00,,,0.00,meteo_script,2013-07-24 07:30:00,
2013-07-24 03:40:00,70.7,70.7,29.51,North,0,0.0,0.0,100,0.00,,,0.00,meteo_script,2013-07-24 07:40:00,
2013-07-24 03:45:00,70.8,70.8,29.50,North,0,0.0,0.0,100,0.00,,,0.00,meteo_script,2013-07-24 07:45:00,
2013-07-24 03:55:00,70.7,70.7,29.50,North,0,0.0,0.0,100,0.00,,,0.00,meteo_script,2013-07-24 07:55:00,
2013-07-24 04:00:00,70.7,70.7,29.50,North,0,0.0,0.0,100,0.00,,,0.00,meteo_script,2013-07-24 08:00:00,
2013-07-24 04:05:00,70.7,70.7,29.50,North,0,0.0,0.0,100,0.00,,,0.00,meteo_script,2013-07-24 08:05:00,
2013-07-24 04:10:00,70.6,70.6,29.50,North,0,0.0,0.0,100,0.00,,,0.00,meteo_script,2013-07-24 08:10:00,
2013-07-24 04:15:00,70.6,70.6,29.50,North,0,0.0,0.0,100,0.00,,,0.00,meteo_script,2013-07-24 08:15:00,
2013-07-24 04:20:00,70.6,70.6,29.51,North,0,0.0,0.0,100,0.00,,,0.00,meteo_script,2013-07-24 08:20:00,
2013-07-24 04:25:00,70.7,70.7,29.51,North,0,0.0,0.0,100,0.00,,,0.00,meteo_script,2013-07-24 08:25:00,
2013-07-24 04:35:00,70.7,70.7,29.51,North,0,0.0,0.0,100,0.00,,,0.00,meteo_script,2013-07-24 08:35:00,
2013-07-24 04:40:00,70.7,70.7,29.51,North,0,0.0,0.0,100,0.00,,,0.00,meteo_script,2013-07-24 08:40:00,
2013-07-24 04:45:00,70.6,70.6,29.51,North,0,0.0,0.0,100,0.00,,,0.00,meteo_script,2013-07-24 08:45:00,
2013-07-24 04:55:00,70.5,70.5,29.51,North,0,0.0,0.0,100,0.00,,,0.00,meteo_script,2013-07-24 08:55:00,
2013-07-24 05:00:00,70.4,70.4,29.51,North,0,0.0,0.0,100,0.00,,,0.00,meteo_script,2013-07-24 09:00:00,
2013-07-24 05:05:00,70.3,70.3,29.51,North,0,0.0,0.0,100,0.00,,,0.00,meteo_script,2013-07-24 09:05:00,
2013-07-24 05:15:00,70.3,70.3,29.51,North,0,0.0,0.0,100,0.00,,,0.00,meteo_script,2013-07-24 09:15:00,
2013-07-24 05:20:00,70.2,70.2,29.51,North,0,0.0,0.0,100,0.00,,,0.00,meteo_script,2013-07-24 09:20:00,
2013-07-24 05:30:00,70.0,70.0,29.51,North,0,0.0,0.0,100,0.00,,,0.00,meteo_script,2013-07-24 09:30:00,
2013-07-24 05:35:00,69.9,69.9,29.51,North,0,0.0,0.0,100,0.00,,,0.00,meteo_script,2013-07-24 09:35:00,
2013-07-24 05:40:00,69.9,69.9,29.51,North,0,0.0,0.0,100,0.00,,,0.00,meteo_script,2013-07-24 09:40:00,
2013-07-24 05:50:00,69.8,69.8,29.51,North,0,0.0,0.0,100,0.00,,,0.00,meteo_script,2013-07-24 09:50:00,
2013-07-24 05:55:00,69.7,69.7,29.51,North,0,0.0,0.0,100,0.00,,,0.00,meteo_script,2013-07-24 09:55:00,
2013-07-24 06:05:00,69.7,69.7,29.52,North,0,0.0,0.0,100,0.00,,,0.00,meteo_script,2013-07-24 10:05:00,
2013-07-24 06:10:00,69.7,69.7,29.52,North,0,0.0,0.0,100,0.00,,,0.00,meteo_script,2013-07-24 10:10:00,
2013-07-24 06:20:00,69.8,69.8,29.52,North,0,0.0,0.0,100,0.00,,,0.00,meteo_script,2013-07-24 10:20:00,
2013-07-24 06:25:00,69.8,69.8,29.52,North,0,0.0,0.0,100,0.00,,,0.00,meteo_script,2013-07-24 10:25:00,
2013-07-24 06:30:00,69.8,69.8,29.52,North,0,0.0,0.0,100,0.00,,,0.00,meteo_script,2013-07-24 10:30:00,
2013-07-24 06:40:00,70.0,70.0,29.53,North,0,0.0,0.0,100,0.00,,,0.00,meteo_script,2013-07-24 10:40:00,
2013-07-24 06:45:00,70.2,70.2,29.53,North,0,0.0,0.0,100,0.00,,,0.00,meteo_script,2013-07-24 10:45:00,
2013-07-24 06:50:00,70.2,70.2,29.53,North,0,0.0,0.0,100,0.00,,,0.00,meteo_script,2013-07-24 10:50:00,
2013-07-24 07:00:00,70.4,70.4,29.53,North,0,0.0,0.0,100,0.00,,,0.00,meteo_script,2013-07-24 11:00:00,
2013-07-24 07:05:00,70.5,70.5,29.53,North,0,0.0,0.0,100,0.00,,,0.00,meteo_script,2013-07-24 11:05:00,
2013-07-24 07:15:00,70.3,70.3,29.53,North,0,0.0,0.0,100,0.00,,,0.00,meteo_script,2013-07-24 11:15:00,
2013-07-24 07:20:00,70.3,70.3,29.54,North,0,0.0,0.0,100,0.00,,,0.00,meteo_script,2013-07-24 11:20:00,
2013-07-24 07:30:00,70.3,70.3,29.53,North,0,0.0,0.0,100,0.00,,,0.00,meteo_script,2013-07-24 11:30:00,
2013-07-24 07:40:00,70.6,70.6,29.54,North,0,0.0,0.0,100,0.00,,,0.00,meteo_script,2013-07-24 11:40:00,
2013-07-24 07:45:00,70.7,70.7,29.54,North,0,0.0,0.0,100,0.00,,,0.00,meteo_script,2013-07-24 11:45:00,
2013-07-24 07:55:00,71.1,71.1,29.54,North,0,0.0,0.0,100,0.00,,,0.00,meteo_script,2013-07-24 11:55:00,
2013-07-24 08:00:00,71.4,71.4,29.55,North,0,0.0,0.0,100,0.00,,,0.00,meteo_script,2013-07-24 12:00:00,
2013-07-24 08:10:00,72.0,72.0,29.55,North,0,0.0,0.0,100,0.00,,,0.00,meteo_script,2013-07-24 12:10:00,
2013-07-24 08:15:00,72.0,72.0,29.54,North,0,0.0,0.0,100,0.00,,,0.00,meteo_script,2013-07-24 12:15:00,
2013-07-24 08:25:00,71.9,71.9,29.55,North,0,0.0,0.0,100,0.00,,,0.00,meteo_script,2013-07-24 12:25:00,
2013-07-24 08:30:00,72.0,72.0,29.55,North,0,0.0,0.0,100,0.00,,,0.00,meteo_script,2013-07-24 12:30:00,
2013-07-24 08:35:00,72.1,72.1,29.55,North,0,0.0,0.0,100,0.00,,,0.00,meteo_script,2013-07-24 12:35:00,
2013-07-24 08:45:00,72.2,72.2,29.55,North,0,0.0,0.0,100,0.00,,,0.00,meteo_script,2013-07-24 12:45:00,
2013-07-24 08:50:00,72.2,72.2,29.55,North,0,0.0,0.0,100,0.00,,,0.00,meteo_script,2013-07-24 12:50:00,
2013-07-24 09:00:00,72.4,72.4,29.56,North,0,0.0,0.0,100,0.00,,,0.00,meteo_script,2013-07-24 13:00:00,
2013-07-24 09:05:00,72.4,72.4,29.56,North,0,0.0,0.0,100,0.00,,,0.00,meteo_script,2013-07-24 13:05:00,
2013-07-24 09:10:00,72.3,72.3,29.56,North,0,0.0,0.0,100,0.00,,,0.00,meteo_script,2013-07-24 13:10:00,
2013-07-24 09:20:00,72.5,72.5,29.56,North,0,0.0,0.0,100,0.00,,,0.00,meteo_script,2013-07-24 13:20:00,
2013-07-24 09:30:00,73.1,73.1,29.57,North,0,0.0,0.0,100,0.00,,,0.00,meteo_script,2013-07-24 13:30:00,
2013-07-24 09:35:00,73.1,73.1,29.57,North,0,0.0,0.0,100,0.00,,,0.00,meteo_script,2013-07-24 13:35:00,
2013-07-24 09:40:00,73.4,73.4,29.57,West,267,0.1,1.0,100,0.00,,,0.00,meteo_script,2013-07-24 13:40:00,
2013-07-24 09:50:00,74.3,74.3,29.57,West,267,0.1,1.0,100,0.00,,,0.00,meteo_script,2013-07-24 13:50:00,
2013-07-24 10:00:00,74.7,74.7,29.57,North,0,0.2,1.0,100,0.00,,,0.00,meteo_script,2013-07-24 14:00:00,
2013-07-24 10:10:00,74.9,74.9,29.57,West,267,0.0,1.0,100,0.00,,,0.00,meteo_script,2013-07-24 14:10:00,
2013-07-24 10:15:00,75.4,75.4,29.58,West,267,0.1,2.0,100,0.00,,,0.00,meteo_script,2013-07-24 14:15:00,
2013-07-24 10:20:00,76.0,76.0,29.57,North,0,0.0,0.0,100,0.00,,,0.00,meteo_script,2013-07-24 14:20:00,
2013-07-24 10:25:00,76.9,76.9,29.57,North,0,0.0,0.0,100,0.00,,,0.00,meteo_script,2013-07-24 14:25:00,
2013-07-24 10:30:00,78.0,78.0,29.58,North,0,0.0,0.0,100,0.00,,,0.00,meteo_script,2013-07-24 14:30:00,
2013-07-24 10:35:00,79.5,79.4,29.58,West,267,0.1,2.0,99,0.00,,,0.00,meteo_script,2013-07-24 14:35:00,
2013-07-24 10:45:00,81.7,80.6,29.58,West,267,0.1,1.0,96,0.00,,,0.00,meteo_script,2013-07-24 14:45:00,
2013-07-24 10:50:00,81.0,79.7,29.58,North,0,0.1,1.0,95,0.00,,,0.00,meteo_script,2013-07-24 14:50:00,
2013-07-24 11:00:00,81.1,79.7,29.59,North,0,0.0,1.0,95,0.00,,,0.00,meteo_script,2013-07-24 15:00:00,
2013-07-24 11:10:00,81.3,80.5,29.59,West,267,0.7,3.0,97,0.00,,,0.00,meteo_script,2013-07-24 15:10:00,
2013-07-24 11:15:00,82.0,79.6,29.59,West,267,0.7,3.0,92,0.00,,,0.00,meteo_script,2013-07-24 15:15:00,
2013-07-24 11:20:00,82.6,81.3,29.59,West,267,0.4,3.0,95,0.00,,,0.00,meteo_script,2013-07-24 15:20:00,
2013-07-24 11:25:00,84.1,81.9,29.59,North,0,0.2,1.0,92,0.00,,,0.00,meteo_script,2013-07-24 15:25:00,
2013-07-24 11:30:00,85.0,82.3,29.59,West,267,0.4,4.0,91,0.00,,,0.00,meteo_script,2013-07-24 15:30:00,
2013-07-24 11:40:00,85.9,80.8,29.60,West,266,1.1,2.0,85,0.00,,,0.00,meteo_script,2013-07-24 15:40:00,
2013-07-24 11:45:00,86.2,81.8,29.60,West,267,0.5,2.0,87,0.00,,,0.00,meteo_script,2013-07-24 15:45:00,
2013-07-24 11:50:00,86.2,81.9,29.60,West,267,0.5,2.0,87,0.00,,,0.00,meteo_script,2013-07-24 15:50:00,
2013-07-24 12:00:00,87.5,82.1,29.60,West,267,1.0,3.0,84,0.00,,,0.00,meteo_script,2013-07-24 16:00:00,
2013-07-24 12:05:00,88.2,82.2,29.60,West,266,0.8,3.0,82,0.00,,,0.00,meteo_script,2013-07-24 16:05:00,
2013-07-24 12:15:00,87.3,80.4,29.61,West,267,0.9,3.0,80,0.00,,,0.00,meteo_script,2013-07-24 16:15:00,
2013-07-24 12:20:00,88.0,81.8,29.61,West,266,1.0,3.0,82,0.00,,,0.00,meteo_script,2013-07-24 16:20:00,
2013-07-24 12:25:00,88.8,80.5,29.61,West,267,1.0,3.0,76,0.00,,,0.00,meteo_script,2013-07-24 16:25:00,
2013-07-24 12:35:00,86.1,79.4,29.62,West,267,0.3,2.0,80,0.00,,,0.00,meteo_script,2013-07-24 16:35:00,
2013-07-24 12:40:00,85.0,79.1,29.61,West,267,0.5,2.0,82,0.00,,,0.00,meteo_script,2013-07-24 16:40:00,
2013-07-24 12:45:00,83.8,78.6,29.62,West,267,0.5,3.0,84,0.00,,,0.00,meteo_script,2013-07-24 16:45:00,
2013-07-24 12:55:00,82.3,76.8,29.62,West,267,0.8,3.0,83,0.00,,,0.00,meteo_script,2013-07-24 16:55:00,
2013-07-24 13:00:00,82.0,77.0,29.62,West,267,0.5,2.0,84,0.00,,,0.00,meteo_script,2013-07-24 17:00:00,
2013-07-24 13:10:00,82.5,77.3,29.61,West,267,1.1,3.0,84,0.00,,,0.00,meteo_script,2013-07-24 17:10:00,
2013-07-24 13:15:00,83.3,77.5,29.61,West,267,0.8,2.0,82,0.00,,,0.00,meteo_script,2013-07-24 17:15:00,
2013-07-24 13:20:00,83.3,77.2,29.61,West,267,0.5,2.0,82,0.00,,,0.00,meteo_script,2013-07-24 17:20:00,
2013-07-24 13:30:00,84.5,78.4,29.61,West,279,1.2,5.0,82,0.00,,,0.00,meteo_script,2013-07-24 17:30:00,
2013-07-24 13:35:00,84.9,77.8,29.61,WSW,253,0.9,3.0,79,0.00,,,0.00,meteo_script,2013-07-24 17:35:00,
2013-07-24 13:45:00,87.2,79.5,29.61,West,262,0.5,2.0,78,0.00,,,0.00,meteo_script,2013-07-24 17:45:00,
2013-07-24 13:55:00,86.6,78.5,29.62,West,269,0.6,2.0,77,0.00,,,0.00,meteo_script,2013-07-24 17:55:00,
2013-07-24 14:05:00,84.5,77.4,29.62,NW,313,0.4,3.0,79,0.00,,,0.00,meteo_script,2013-07-24 18:05:00,
2013-07-24 14:10:00,84.9,77.5,29.62,NW,313,0.3,2.0,78,0.00,,,0.00,meteo_script,2013-07-24 18:10:00,
2013-07-24 14:20:00,85.2,79.0,29.62,NW,313,0.2,2.0,81,0.00,,,0.00,meteo_script,2013-07-24 18:20:00,
2013-07-24 14:25:00,86.4,79.5,29.62,WNW,302,0.3,3.0,80,0.00,,,0.00,meteo_script,2013-07-24 18:25:00,
2013-07-24 14:35:00,88.0,78.6,29.62,WNW,285,0.8,3.0,74,0.00,,,0.00,meteo_script,2013-07-24 18:35:00,
2013-07-24 14:40:00,86.5,78.0,29.62,WNW,285,0.6,2.0,75,0.00,,,0.00,meteo_script,2013-07-24 18:40:00,
2013-07-24 14:50:00,87.1,78.4,29.63,WNW,284,0.4,3.0,75,0.00,,,0.00,meteo_script,2013-07-24 18:50:00,
2013-07-24 14:55:00,87.5,79.6,29.63,WNW,292,1.1,5.0,77,0.00,,,0.00,meteo_script,2013-07-24 18:55:00,
2013-07-24 15:00:00,87.9,78.3,29.63,WNW,295,0.9,3.0,73,0.00,,,0.00,meteo_script,2013-07-24 19:00:00,
2013-07-24 15:10:00,85.2,76.0,29.64,WNW,295,0.2,2.0,74,0.00,,,0.00,meteo_script,2013-07-24 19:10:00,
2013-07-24 15:15:00,84.2,76.0,29.63,WNW,297,0.5,2.0,76,0.00,,,0.00,meteo_script,2013-07-24 19:15:00,
2013-07-24 15:25:00,83.9,76.8,29.64,WSW,252,0.6,3.0,79,0.00,,,0.00,meteo_script,2013-07-24 19:25:00,
2013-07-24 15:30:00,84.1,76.4,29.64,WSW,254,0.6,2.0,77,0.00,,,0.00,meteo_script,2013-07-24 19:30:00,
2013-07-24 15:35:00,83.9,75.8,29.64,WSW,254,0.4,2.0,76,0.00,,,0.00,meteo_script,2013-07-24 19:35:00,
2013-07-24 15:45:00,82.6,74.6,29.65,WSW,254,0.3,2.0,77,0.00,,,0.00,meteo_script,2013-07-24 19:45:00,
2013-07-24 15:50:00,82.4,75.2,29.65,North,0,0.2,1.0,78,0.00,,,0.00,meteo_script,2013-07-24 19:50:00,
2013-07-24 16:00:00,82.7,74.8,29.65,North,0,0.1,1.0,77,0.00,,,0.00,meteo_script,2013-07-24 20:00:00,
2013-07-24 16:05:00,83.3,76.0,29.65,WSW,255,0.2,2.0,78,0.00,,,0.00,meteo_script,2013-07-24 20:05:00,
2013-07-24 16:10:00,83.1,75.3,29.66,WSW,255,0.4,2.0,77,0.00,,,0.00,meteo_script,2013-07-24 20:10:00,
2013-07-24 16:20:00,81.0,72.9,29.66,North,0,0.2,1.0,76,0.00,,,0.00,meteo_script,2013-07-24 20:20:00,
2013-07-24 16:25:00,80.5,72.9,29.66,North,0,0.2,1.0,77,0.00,,,0.00,meteo_script,2013-07-24 20:25:00,
2013-07-24 16:35:00,81.1,73.8,29.66,NW,318,0.2,3.0,78,0.00,,,0.00,meteo_script,2013-07-24 20:35:00,
2013-07-24 16:40:00,81.1,73.2,29.66,NW,318,0.3,2.0,76,0.00,,,0.00,meteo_script,2013-07-24 20:40:00,
2013-07-24 16:50:00,81.0,74.0,29.66,NW,318,0.1,1.0,79,0.00,,,0.00,meteo_script,2013-07-24 20:50:00,
2013-07-24 16:55:00,81.0,72.9,29.67,NW,318,0.1,2.0,76,0.00,,,0.00,meteo_script,2013-07-24 20:55:00,
2013-07-24 17:00:00,80.8,73.8,29.67,NW,318,0.1,2.0,79,0.00,,,0.00,meteo_script,2013-07-24 21:00:00,
2013-07-24 17:10:00,80.2,72.5,29.67,NW,318,0.2,1.0,77,0.00,,,0.00,meteo_script,2013-07-24 21:10:00,
2013-07-24 17:15:00,80.0,72.9,29.67,North,0,0.1,1.0,79,0.00,,,0.00,meteo_script,2013-07-24 21:15:00,
2013-07-24 17:25:00,78.9,72.2,29.67,North,0,0.0,1.0,80,0.00,,,0.00,meteo_script,2013-07-24 21:25:00,
2013-07-24 17:30:00,78.5,72.9,29.67,North,0,0.0,0.0,83,0.00,,,0.00,meteo_script,2013-07-24 21:30:00,
2013-07-24 17:35:00,78.4,73.4,29.68,North,0,0.0,0.0,84,0.00,,,0.00,meteo_script,2013-07-24 21:35:00,
2013-07-24 17:45:00,78.0,73.5,29.68,North,0,0.0,0.0,86,0.00,,,0.00,meteo_script,2013-07-24 21:45:00,
2013-07-24 17:50:00,77.7,73.2,29.68,North,0,0.0,1.0,86,0.00,,,0.00,meteo_script,2013-07-24 21:50:00,
2013-07-24 17:55:00,77.2,72.7,29.68,North,0,0.0,1.0,86,0.00,,,0.00,meteo_script,2013-07-24 21:55:00,
2013-07-24 18:05:00,76.9,73.5,29.68,North,0,0.0,0.0,89,0.00,,,0.00,meteo_script,2013-07-24 22:05:00,
2013-07-24 18:10:00,76.7,73.5,29.69,North,0,0.0,0.0,90,0.00,,,0.00,meteo_script,2013-07-24 22:10:00,
2013-07-24 18:15:00,76.5,73.7,29.69,North,0,0.0,0.0,91,0.00,,,0.00,meteo_script,2013-07-24 22:15:00,
2013-07-24 18:20:00,76.3,73.4,29.69,North,0,0.0,0.0,90,0.00,,,0.00,meteo_script,2013-07-24 22:20:00,
2013-07-24 18:25:00,76.0,73.5,29.69,North,0,0.0,0.0,92,0.00,,,0.00,meteo_script,2013-07-24 22:25:00,
2013-07-24 18:30:00,75.7,73.3,29.69,North,0,0.0,0.0,92,0.00,,,0.00,meteo_script,2013-07-24 22:30:00,
2013-07-24 18:40:00,75.4,73.6,29.70,North,0,0.0,0.0,94,0.00,,,0.00,meteo_script,2013-07-24 22:40:00,
2013-07-24 18:45:00,75.4,73.8,29.70,North,0,0.0,0.0,94,0.00,,,0.00,meteo_script,2013-07-24 22:45:00,
2013-07-24 18:55:00,75.3,73.9,29.71,North,0,0.0,0.0,95,0.00,,,0.00,meteo_script,2013-07-24 22:55:00,
2013-07-24 19:00:00,75.0,73.1,29.71,North,0,0.0,0.0,94,0.00,,,0.00,meteo_script,2013-07-24 23:00:00,
2013-07-24 19:05:00,74.7,73.2,29.71,North,0,0.0,0.0,95,0.00,,,0.00,meteo_script,2013-07-24 23:05:00,
2013-07-24 19:15:00,74.3,73.1,29.71,North,0,0.0,0.0,96,0.00,,,0.00,meteo_script,2013-07-24 23:15:00,
2013-07-24 19:20:00,74.3,73.4,29.71,NW,318,0.0,1.0,97,0.00,,,0.00,meteo_script,2013-07-24 23:20:00,
2013-07-24 19:30:00,74.1,73.2,29.72,North,0,0.0,0.0,97,0.00,,,0.00,meteo_script,2013-07-24 23:30:00,
2013-07-24 19:35:00,73.9,73.0,29.72,North,0,0.0,0.0,97,0.00,,,0.00,meteo_script,2013-07-24 23:35:00,
2013-07-24 19:40:00,73.8,72.9,29.73,North,0,0.0,0.0,97,0.00,,,0.00,meteo_script,2013-07-24 23:40:00,
2013-07-24 19:50:00,73.4,72.2,29.73,North,0,0.0,0.0,96,0.00,,,0.00,meteo_script,2013-07-24 23:50:00,
2013-07-24 19:55:00,73.3,72.5,29.74,North,0,0.0,0.0,97,0.00,,,0.00,meteo_script,2013-07-24 23:55:00,
2013-07-24 20:05:00,73.1,72.8,29.74,North,0,0.0,0.0,99,0.00,,,0.00,meteo_script,2013-07-25 00:05:00,
2013-07-24 20:10:00,73.0,72.7,29.75,North,0,0.0,0.0,99,0.00,,,0.00,meteo_script,2013-07-25 00:10:00,
2013-07-24 20:20:00,72.6,70.8,29.76,NW,318,0.1,3.0,93,0.00,,,0.00,meteo_script,2013-07-25 00:20:00,
2013-07-24 20:25:00,72.3,69.8,29.76,NW,318,0.4,2.0,91,0.00,,,0.00,meteo_script,2013-07-25 00:25:00,
2013-07-24 20:30:00,72.0,69.2,29.77,WSW,244,0.4,2.0,91,0.00,,,0.00,meteo_script,2013-07-25 00:30:00,
2013-07-24 20:40:00,71.4,68.6,29.78,WSW,249,0.1,2.0,91,0.00,,,0.00,meteo_script,2013-07-25 00:40:00,
2013-07-24 20:45:00,71.1,68.3,29.78,WSW,249,0.2,1.0,90,0.00,,,0.00,meteo_script,2013-07-25 00:45:00,
2013-07-24 20:50:00,70.8,67.6,29.79,North,0,0.1,1.0,89,0.00,,,0.00,meteo_script,2013-07-25 00:50:00,
2013-07-24 21:00:00,70.5,67.7,29.80,North,0,0.0,1.0,90,0.00,,,0.00,meteo_script,2013-07-25 01:00:00,
2013-07-24 21:05:00,70.3,67.5,29.80,North,0,0.0,0.0,91,0.00,,,0.00,meteo_script,2013-07-25 01:05:00,
2013-07-24 21:15:00,70.1,67.1,29.80,West,262,0.2,5.0,90,0.00,,,0.00,meteo_script,2013-07-25 01:15:00,
2013-07-24 21:20:00,69.9,66.9,29.81,WNW,294,0.2,2.0,90,0.00,,,0.00,meteo_script,2013-07-25 01:20:00,
2013-07-24 21:25:00,69.8,66.6,29.81,NW,311,0.2,1.0,89,0.00,,,0.00,meteo_script,2013-07-25 01:25:00,
2013-07-24 21:35:00,69.6,66.3,29.82,NW,311,0.0,1.0,89,0.00,,,0.00,meteo_script,2013-07-25 01:35:00,
2013-07-24 21:40:00,69.4,66.6,29.82,North,0,0.2,5.0,90,0.00,,,0.00,meteo_script,2013-07-25 01:40:00,
2013-07-24 21:50:00,69.1,65.8,29.83,North,0,0.0,0.0,89,0.00,,,0.00,meteo_script,2013-07-25 01:50:00,
2013-07-24 21:55:00,68.9,65.5,29.82,SW,216,0.2,6.0,89,0.00,,,0.00,meteo_script,2013-07-25 01:55:00,
2013-07-24 22:00:00,68.8,65.1,29.83,North,0,0.3,2.0,88,0.00,,,0.00,meteo_script,2013-07-25 02:00:00,
2013-07-24 22:10:00,68.5,65.4,29.83,North,0,0.1,1.0,89,0.00,,,0.00,meteo_script,2013-07-25 02:10:00,
2013-07-24 22:15:00,68.3,65.0,29.83,WNW,288,0.5,7.0,89,0.00,,,0.00,meteo_script,2013-07-25 02:15:00,
2013-07-24 22:25:00,67.9,64.4,29.84,ESE,116,0.4,2.0,88,0.00,,,0.00,meteo_script,2013-07-25 02:25:00,
2013-07-24 22:30:00,67.7,64.7,29.85,North,0,0.2,1.0,90,0.00,,,0.00,meteo_script,2013-07-25 02:30:00,
2013-07-24 22:35:00,67.5,64.3,29.84,SW,229,0.2,6.0,89,0.00,,,0.00,meteo_script,2013-07-25 02:35:00,
2013-07-24 22:45:00,66.9,63.6,29.85,WSW,250,0.5,3.0,89,0.00,,,0.00,meteo_script,2013-07-25 02:45:00,
2013-07-24 22:50:00,66.6,63.3,29.86,WNW,286,0.6,5.0,89,0.00,,,0.00,meteo_script,2013-07-25 02:50:00,
2013-07-24 23:00:00,66.0,62.9,29.86,WNW,290,0.3,3.0,89,0.00,,,0.00,meteo_script,2013-07-25 03:00:00,
2013-07-24 23:05:00,65.7,62.4,29.86,NNE,30,0.2,4.0,89,0.00,,,0.00,meteo_script,2013-07-25 03:05:00,
2013-07-24 23:10:00,65.4,62.2,29.87,North,350,0.2,2.0,89,0.00,,,0.00,meteo_script,2013-07-25 03:10:00,
2013-07-24 23:16:00,65.3,62.4,29.87,North,0,0.1,2.0,90,0.00,,,0.00,meteo_script,2013-07-25 03:16:00,
2013-07-24 23:21:00,65.1,62.4,29.87,North,0,0.1,3.0,91,0.00,,,0.00,meteo_script,2013-07-25 03:21:00,
2013-07-24 23:30:00,64.7,62.0,29.88,North,0,0.2,3.0,91,0.00,,,0.00,meteo_script,2013-07-25 03:30:00,
2013-07-24 23:35:00,64.6,62.1,29.88,WNW,295,0.2,3.0,91,0.00,,,0.00,meteo_script,2013-07-25 03:35:00,
2013-07-24 23:45:00,64.5,61.8,29.88,NNW,330,0.2,2.0,91,0.00,,,0.00,meteo_script,2013-07-25 03:45:00,
2013-07-24 23:55:00,64.1,61.4,29.88,WSW,242,0.1,3.0,91,0.00,,,0.00,meteo_script,2013-07-25 03:55:00,